TAF Text Data
IDs:
Format:
Raw Decoded Include METAR

Data at: 0703 UTC 27 Feb 2020

KBHM 270520Z 2706/2806 30010KT P6SM -SHSN OVC040
  FM271500 31010KT P6SM SCT250
  FM280000 25005KT P6SM SKC